Time;durP1;ratioP1;P1;durP2;ratioP2;P2;SDS_P1;SDS_P2;PMS_P1;PMS_P2;Temp;Humidity;BMP_temperature;BMP_pressure;BME280_temperature;BME280_humidity;BME280_pressure;Samples;Min_cycle;Max_cycle;Signal;HPM_P1;HPM_P2
2023/09/30 00:02:35;;;;;;;27.70;9.60;;;;;;;;;;2614047;54;20431;-80
2023/09/30 00:08:06;;;;;;;30.77;12.33;;;;;;;;;;2614514;54;20386;-82
2023/09/30 00:13:36;;;;;;;24.00;9.67;;;;;;;;;;2612825;54;20941;-81
2023/09/30 00:19:06;;;;;;;26.30;9.77;;;;;;;;;;2614144;46;20403;-81
2023/09/30 00:24:35;;;;;;;26.57;10.90;;;;;;;;;;2614130;54;20786;-81
2023/09/30 00:30:06;;;;;;;17.27;8.17;;;;;;;;;;2615049;39;20780;-82
2023/09/30 00:39:13;;;;;;;19.70;8.63;;;;;;;;;;2614195;54;20393;-80
2023/09/30 00:44:42;;;;;;;24.10;8.90;;;;;;;;;;2614457;54;20434;-81
2023/09/30 00:50:13;;;;;;;26.13;8.63;;;;;;;;;;2615225;54;20506;-81
2023/09/30 00:55:43;;;;;;;19.20;8.60;;;;;;;;;;2614566;54;20414;-80
2023/09/30 01:01:13;;;;;;;21.80;9.67;;;;;;;;;;2614303;54;20395;-81
2023/09/30 01:06:43;;;;;;;19.57;8.63;;;;;;;;;;2614864;54;20394;-81
2023/09/30 01:12:12;;;;;;;13.70;8.40;;;;;;;;;;2614949;54;20390;-80
2023/09/30 01:17:42;;;;;;;22.63;8.43;;;;;;;;;;2615516;54;20379;-80
2023/09/30 01:23:12;;;;;;;18.40;9.00;;;;;;;;;;2615214;54;20531;-79
2023/09/30 01:28:42;;;;;;;25.03;8.43;;;;;;;;;;2615383;54;20414;-79
2023/09/30 01:34:12;;;;;;;18.17;8.37;;;;;;;;;;2615490;39;20710;-79
2023/09/30 01:39:43;;;;;;;18.90;8.03;;;;;;;;;;2613224;39;20762;-79
2023/09/30 01:45:13;;;;;;;20.83;6.87;;;;;;;;;;2614722;54;20431;-78
2023/09/30 01:50:42;;;;;;;19.53;8.23;;;;;;;;;;2615509;54;20489;-79
2023/09/30 01:56:12;;;;;;;19.47;7.53;;;;;;;;;;2613804;54;20949;-80
2023/09/30 02:01:42;;;;;;;25.53;8.20;;;;;;;;;;2612646;54;20430;-79
2023/09/30 02:07:11;;;;;;;31.37;8.60;;;;;;;;;;2614660;54;20378;-80
2023/09/30 02:12:41;;;;;;;14.70;7.60;;;;;;;;;;2614238;54;20414;-80
2023/09/30 02:18:11;;;;;;;22.07;9.27;;;;;;;;;;2614985;54;20424;-81
2023/09/30 02:23:41;;;;;;;17.70;7.30;;;;;;;;;;2614678;54;20412;-81
2023/09/30 02:29:10;;;;;;;30.33;8.27;;;;;;;;;;2614863;54;20414;-80
2023/09/30 02:34:40;;;;;;;26.77;8.60;;;;;;;;;;2615571;54;20964;-79
2023/09/30 02:43:51;;;;;;;20.00;9.43;;;;;;;;;;2614964;54;20957;-79
2023/09/30 02:49:21;;;;;;;19.00;8.60;;;;;;;;;;2615722;54;20391;-79
2023/09/30 02:54:54;;;;;;;15.60;8.70;;;;;;;;;;2615115;54;20386;-80
2023/09/30 03:00:25;;;;;;;12.97;7.10;;;;;;;;;;2616029;54;20382;-80
2023/09/30 03:05:55;;;;;;;14.60;7.20;;;;;;;;;;2615416;54;20407;-80
2023/09/30 03:11:24;;;;;;;14.30;7.90;;;;;;;;;;2614912;54;20909;-79
2023/09/30 03:16:54;;;;;;;14.07;8.80;;;;;;;;;;2614533;54;20391;-79
2023/09/30 03:22:24;;;;;;;15.60;7.93;;;;;;;;;;2615629;54;20398;-80
2023/09/30 03:27:54;;;;;;;23.70;9.53;;;;;;;;;;2614574;54;20499;-78
2023/09/30 03:33:24;;;;;;;16.87;7.73;;;;;;;;;;2615494;54;20395;-76
2023/09/30 03:38:59;;;;;;;20.43;7.50;;;;;;;;;;2616277;54;20415;-79
2023/09/30 03:44:28;;;;;;;16.47;7.50;;;;;;;;;;2614906;31;20959;-79
2023/09/30 03:49:59;;;;;;;16.97;8.30;;;;;;;;;;2614228;54;20407;-79
2023/09/30 03:55:29;;;;;;;14.20;6.73;;;;;;;;;;2614227;54;20498;-80
2023/09/30 04:01:00;;;;;;;16.83;7.43;;;;;;;;;;2614216;54;21020;-80
2023/09/30 04:06:29;;;;;;;15.63;8.33;;;;;;;;;;2615367;54;20418;-81
2023/09/30 04:12:01;;;;;;;14.30;7.67;;;;;;;;;;2620722;54;20391;-79
2023/09/30 04:17:30;;;;;;;19.20;8.30;;;;;;;;;;2623386;54;20396;-80
2023/09/30 04:23:02;;;;;;;17.73;7.33;;;;;;;;;;2615334;54;20418;-81
2023/09/30 04:28:34;;;;;;;20.03;8.07;;;;;;;;;;2616968;54;20439;-82
2023/09/30 04:34:04;;;;;;;26.80;8.80;;;;;;;;;;2616644;54;20937;-82
2023/09/30 04:39:35;;;;;;;25.83;9.87;;;;;;;;;;2618107;54;20376;-82
2023/09/30 04:48:39;;;;;;;19.93;9.13;;;;;;;;;;2620000;54;20419;-82
2023/09/30 04:54:10;;;;;;;18.73;9.40;;;;;;;;;;2613923;54;20483;-82
2023/09/30 04:59:40;;;;;;;20.33;9.97;;;;;;;;;;2614794;54;20411;-79
2023/09/30 05:05:09;;;;;;;25.43;11.07;;;;;;;;;;2615035;54;20428;-80
2023/09/30 05:10:39;;;;;;;16.83;9.80;;;;;;;;;;2614461;54;20394;-80
2023/09/30 05:16:09;;;;;;;27.53;9.60;;;;;;;;;;2614671;54;20387;-79
2023/09/30 05:21:39;;;;;;;18.57;9.33;;;;;;;;;;2615380;54;20400;-77
2023/09/30 05:27:09;;;;;;;30.07;12.17;;;;;;;;;;2614007;54;20411;-77
2023/09/30 05:32:39;;;;;;;27.97;11.73;;;;;;;;;;2614253;54;20969;-78
2023/09/30 05:38:08;;;;;;;26.00;12.53;;;;;;;;;;2614525;54;20921;-77
2023/09/30 05:43:38;;;;;;;31.90;13.90;;;;;;;;;;2613930;54;20949;-78
2023/09/30 05:49:13;;;;;;;27.87;13.23;;;;;;;;;;2614776;54;20411;-77
2023/09/30 05:54:43;;;;;;;30.33;13.20;;;;;;;;;;2612822;54;20406;-77
2023/09/30 06:06:01;;;;;;;36.17;13.27;;;;;;;;;;2615691;39;20906;-76
2023/09/30 06:11:31;;;;;;;31.97;13.00;;;;;;;;;;2616497;39;20784;-78
2023/09/30 06:17:01;;;;;;;31.57;15.90;;;;;;;;;;2613851;54;20386;-78
2023/09/30 06:22:31;;;;;;;31.10;13.13;;;;;;;;;;2615507;54;20389;-78
2023/09/30 06:28:01;;;;;;;31.90;15.27;;;;;;;;;;2612430;54;20398;-79
2023/09/30 06:33:31;;;;;;;38.40;16.80;;;;;;;;;;2612970;39;20865;-78
2023/09/30 06:39:02;;;;;;;26.37;14.63;;;;;;;;;;2612341;54;20391;-78
2023/09/30 06:50:41;;;;;;;33.57;14.70;;;;;;;;;;2613551;54;20418;-76
2023/09/30 06:56:10;;;;;;;29.43;12.60;;;;;;;;;;2611132;54;20423;-77
2023/09/30 07:01:40;;;;;;;18.70;12.90;;;;;;;;;;2613151;54;21767;-78
2023/09/30 07:07:10;;;;;;;23.63;11.77;;;;;;;;;;2614217;54;20406;-79
2023/09/30 07:12:39;;;;;;;20.23;11.23;;;;;;;;;;2614174;39;20724;-78
2023/09/30 07:18:09;;;;;;;17.77;11.20;;;;;;;;;;2613600;54;20387;-78
2023/09/30 07:23:40;;;;;;;20.60;10.50;;;;;;;;;;2614301;39;20746;-78
2023/09/30 07:29:10;;;;;;;18.23;10.13;;;;;;;;;;2614600;54;20387;-78
2023/09/30 07:34:40;;;;;;;20.87;11.43;;;;;;;;;;2613035;54;21165;-78
2023/09/30 07:40:10;;;;;;;18.17;11.20;;;;;;;;;;2607305;54;20749;-78
2023/09/30 07:49:20;;;;;;;20.20;10.07;;;;;;;;;;2615911;39;20793;-77
2023/09/30 07:54:50;;;;;;;22.13;9.30;;;;;;;;;;2613916;54;20395;-78
2023/09/30 08:00:21;;;;;;;17.73;9.37;;;;;;;;;;2615335;54;20418;-77
2023/09/30 08:05:50;;;;;;;16.90;8.80;;;;;;;;;;2614928;54;20387;-78
2023/09/30 08:11:20;;;;;;;11.80;9.03;;;;;;;;;;2615293;54;20434;-78
2023/09/30 08:16:50;;;;;;;16.73;8.57;;;;;;;;;;2614922;54;20387;-78
2023/09/30 08:22:21;;;;;;;12.00;8.37;;;;;;;;;;2616257;31;20890;-78
2023/09/30 08:27:51;;;;;;;8.30;7.23;;;;;;;;;;2615622;54;20392;-78
2023/09/30 08:33:20;;;;;;;14.40;8.13;;;;;;;;;;2615363;54;20387;-80
2023/09/30 08:38:52;;;;;;;11.70;8.13;;;;;;;;;;2615642;39;20744;-79
2023/09/30 08:44:21;;;;;;;10.87;8.30;;;;;;;;;;2615301;54;20366;-78
2023/09/30 08:49:56;;;;;;;8.17;7.27;;;;;;;;;;2613792;39;20483;-78
2023/09/30 08:55:27;;;;;;;11.13;8.07;;;;;;;;;;2614132;39;20687;-79
2023/09/30 09:00:57;;;;;;;14.07;8.87;;;;;;;;;;2614858;54;20438;-79
2023/09/30 09:06:27;;;;;;;12.03;8.80;;;;;;;;;;2614721;54;20407;-78
2023/09/30 09:11:57;;;;;;;12.30;8.63;;;;;;;;;;2614915;54;20491;-79
2023/09/30 09:17:43;;;;;;;8.23;7.40;;;;;;;;;;2614772;54;20466;-80
2023/09/30 09:20:28;;;;;;;9.23;7.93;;;;;;;;;;2615163;54;20431;-80
2023/09/30 09:22:55;;;;;;;8.97;8.07;;;;;;;;;;2614759;39;20945;-78
2023/09/30 09:34:22;;;;;;;8.63;7.83;;;;;;;;;;2615780;54;20399;-79
2023/09/30 09:39:58;;;;;;;9.53;8.63;;;;;;;;;;2615254;54;20512;-78
2023/09/30 09:51:35;;;;;;;19.37;8.80;;;;;;;;;;2615357;54;21010;-76
2023/09/30 09:57:05;;;;;;;11.80;10.67;;;;;;;;;;2615768;39;20849;-77
2023/09/30 10:02:36;;;;;;;9.53;8.60;;;;;;;;;;2615340;54;20387;-77
2023/09/30 10:08:08;;;;;;;10.07;9.07;;;;;;;;;;2615366;46;20413;-79
2023/09/30 10:13:55;;;;;;;11.93;8.97;;;;;;;;;;2613579;54;20391;-79
2023/09/30 10:19:25;;;;;;;11.50;10.47;;;;;;;;;;2614966;54;20396;-78
2023/09/30 10:24:59;;;;;;;10.37;9.60;;;;;;;;;;2615237;54;20398;-79
2023/09/30 10:30:29;;;;;;;10.27;9.57;;;;;;;;;;2614996;54;20375;-76
2023/09/30 10:35:58;;;;;;;10.47;9.57;;;;;;;;;;2614556;54;20383;-76
2023/09/30 10:41:41;;;;;;;9.30;8.60;;;;;;;;;;2615091;54;20956;-75
2023/09/30 10:47:24;;;;;;;9.87;8.60;;;;;;;;;;2614191;54;20469;-78
2023/09/30 10:52:54;;;;;;;9.77;9.00;;;;;;;;;;2615015;54;20387;-82
2023/09/30 10:58:42;;;;;;;9.63;8.63;;;;;;;;;;2612309;54;20905;-78
2023/09/30 11:04:11;;;;;;;10.27;9.20;;;;;;;;;;2612583;54;20422;-79
2023/09/30 11:09:42;;;;;;;10.17;9.30;;;;;;;;;;2614140;54;20423;-80
2023/09/30 11:15:13;;;;;;;9.33;8.63;;;;;;;;;;2613248;54;21309;-80
2023/09/30 11:20:44;;;;;;;9.47;8.67;;;;;;;;;;2615154;54;20419;-80
2023/09/30 11:26:14;;;;;;;9.90;9.10;;;;;;;;;;2615192;54;20950;-78
2023/09/30 11:31:44;;;;;;;11.27;10.47;;;;;;;;;;2613883;54;20495;-78
2023/09/30 11:37:15;;;;;;;10.80;9.83;;;;;;;;;;2615577;54;20395;-79
2023/09/30 11:51:58;;;;;;;11.23;10.53;;;;;;;;;;2615342;54;20462;-78
2023/09/30 11:57:28;;;;;;;11.33;10.57;;;;;;;;;;2614111;54;20411;-79
2023/09/30 12:02:57;;;;;;;11.70;11.00;;;;;;;;;;2615556;31;20805;-79
2023/09/30 12:08:27;;;;;;;12.47;11.40;;;;;;;;;;2615615;54;20459;-80
2023/09/30 12:13:57;;;;;;;12.30;11.50;;;;;;;;;;2613014;54;20386;-80
2023/09/30 12:19:26;;;;;;;11.73;10.70;;;;;;;;;;2615844;54;20502;-79
2023/09/30 12:24:56;;;;;;;15.10;10.97;;;;;;;;;;2613413;54;20419;-79
2023/09/30 12:30:26;;;;;;;11.50;10.73;;;;;;;;;;2615051;54;20427;-79
2023/09/30 12:35:57;;;;;;;12.13;11.03;;;;;;;;;;2615581;54;21029;-79
2023/09/30 12:41:29;;;;;;;13.70;12.07;;;;;;;;;;2615917;46;20398;-80
2023/09/30 12:46:59;;;;;;;11.43;10.53;;;;;;;;;;2614778;54;20933;-80
2023/09/30 12:52:30;;;;;;;12.70;11.40;;;;;;;;;;2615057;39;20775;-80
2023/09/30 12:57:59;;;;;;;11.90;11.03;;;;;;;;;;2615719;54;20930;-80
2023/09/30 13:03:29;;;;;;;11.47;10.77;;;;;;;;;;2614846;54;20399;-80
2023/09/30 13:08:59;;;;;;;12.80;11.77;;;;;;;;;;2616392;54;20985;-77
2023/09/30 13:14:28;;;;;;;11.33;10.43;;;;;;;;;;2616982;54;20399;-78
2023/09/30 13:19:58;;;;;;;16.30;11.47;;;;;;;;;;2612122;54;20905;-80
2023/09/30 13:25:28;;;;;;;12.27;11.27;;;;;;;;;;2612066;39;20879;-80
2023/09/30 13:30:58;;;;;;;11.40;10.70;;;;;;;;;;2614843;54;20933;-79
2023/09/30 13:36:28;;;;;;;11.77;10.97;;;;;;;;;;2611742;54;20487;-79
2023/09/30 13:41:59;;;;;;;11.80;11.03;;;;;;;;;;2616527;39;20774;-78
2023/09/30 13:53:16;;;;;;;12.23;11.10;;;;;;;;;;2609757;54;20594;-79
2023/09/30 13:58:46;;;;;;;11.40;10.60;;;;;;;;;;2610909;54;20415;-79
2023/09/30 14:04:16;;;;;;;12.93;11.60;;;;;;;;;;2613584;54;20390;-79
2023/09/30 14:09:46;;;;;;;11.80;10.90;;;;;;;;;;2612675;54;20432;-80
2023/09/30 14:15:15;;;;;;;11.80;11.07;;;;;;;;;;2613257;54;20399;-79
2023/09/30 14:20:45;;;;;;;12.23;11.43;;;;;;;;;;2612604;54;20532;-77
2023/09/30 14:26:15;;;;;;;11.57;10.73;;;;;;;;;;2614554;39;20768;-77
2023/09/30 14:31:45;;;;;;;11.60;10.80;;;;;;;;;;2613523;54;20393;-78
2023/09/30 14:37:15;;;;;;;11.93;11.10;;;;;;;;;;2613278;54;20395;-78
2023/09/30 14:39:59;;;;;;;13.23;12.30;;;;;;;;;;2613609;47;20435;-77
2023/09/30 14:42:25;;;;;;;11.57;10.77;;;;;;;;;;2614261;47;20435;-77
2023/09/30 14:47:55;;;;;;;12.60;11.43;;;;;;;;;;2613488;39;20688;-78
2023/09/30 14:53:25;;;;;;;11.80;10.73;;;;;;;;;;2611086;54;20931;-77
2023/09/30 14:58:55;;;;;;;11.93;10.73;;;;;;;;;;2613058;54;20379;-78
2023/09/30 15:04:25;;;;;;;13.87;12.77;;;;;;;;;;2613379;54;20412;-78
2023/09/30 15:09:54;;;;;;;12.07;11.07;;;;;;;;;;2613605;54;20406;-76
2023/09/30 15:15:24;;;;;;;12.10;11.20;;;;;;;;;;2612342;54;20937;-78
2023/09/30 15:20:54;;;;;;;11.87;11.07;;;;;;;;;;2613392;39;20853;-77
2023/09/30 15:26:24;;;;;;;11.87;11.07;;;;;;;;;;2615116;39;20485;-78
2023/09/30 15:31:53;;;;;;;13.17;12.40;;;;;;;;;;2612721;54;20399;-78
2023/09/30 15:34:40;;;;;;;14.47;13.20;;;;;;;;;;2612707;54;21037;-78
2023/09/30 15:37:07;;;;;;;15.00;13.90;;;;;;;;;;2615577;54;21049;-78
2023/09/30 15:39:51;;;;;;;12.47;11.43;;;;;;;;;;2614107;39;20949;-77
2023/09/30 15:42:17;;;;;;;12.03;10.97;;;;;;;;;;2613248;54;20407;-77
2023/09/30 15:47:47;;;;;;;12.73;11.53;;;;;;;;;;2613705;54;20403;-77
2023/09/30 15:56:55;;;;;;;15.93;14.80;;;;;;;;;;2614014;54;20411;-78
2023/09/30 16:02:24;;;;;;;18.73;13.17;;;;;;;;;;2612373;54;20422;-77
2023/09/30 16:07:54;;;;;;;19.50;16.83;;;;;;;;;;2612795;54;20418;-77
2023/09/30 16:13:24;;;;;;;14.70;13.47;;;;;;;;;;2611264;54;20379;-77
2023/09/30 16:18:54;;;;;;;25.60;23.00;;;;;;;;;;2611357;54;20414;-78
2023/09/30 16:24:24;;;;;;;12.80;11.90;;;;;;;;;;2612130;54;20440;-79
2023/09/30 16:29:53;;;;;;;11.50;10.67;;;;;;;;;;2612587;54;20395;-79
2023/09/30 16:35:23;;;;;;;10.67;9.73;;;;;;;;;;2611964;54;20419;-81
2023/09/30 16:40:52;;;;;;;12.20;9.90;;;;;;;;;;2611929;54;20371;-82
2023/09/30 16:46:22;;;;;;;17.60;12.20;;;;;;;;;;2612953;54;20414;-80
2023/09/30 16:51:51;;;;;;;10.50;9.80;;;;;;;;;;2612957;54;20503;-78
2023/09/30 16:57:22;;;;;;;12.63;11.53;;;;;;;;;;2612177;54;20961;-80
2023/09/30 17:02:52;;;;;;;11.63;10.60;;;;;;;;;;2613564;39;20760;-81
2023/09/30 17:08:22;;;;;;;11.23;10.33;;;;;;;;;;2614455;39;20800;-82
2023/09/30 17:13:52;;;;;;;10.03;9.33;;;;;;;;;;2612728;39;20779;-80
2023/09/30 17:19:21;;;;;;;11.43;9.80;;;;;;;;;;2611898;54;20439;-79
2023/09/30 17:24:51;;;;;;;16.23;9.40;;;;;;;;;;2607654;54;21897;-79
2023/09/30 17:30:21;;;;;;;10.27;9.03;;;;;;;;;;2612312;54;20394;-79
2023/09/30 17:35:51;;;;;;;9.87;8.90;;;;;;;;;;2611037;54;20995;-78
2023/09/30 17:41:21;;;;;;;9.60;8.77;;;;;;;;;;2614391;54;20406;-79
2023/09/30 17:46:51;;;;;;;13.37;8.90;;;;;;;;;;2614220;39;20817;-79
2023/09/30 17:52:20;;;;;;;10.43;8.63;;;;;;;;;;2615798;54;20492;-80
2023/09/30 17:57:50;;;;;;;14.17;8.47;;;;;;;;;;2615062;54;20446;-79
2023/09/30 18:03:20;;;;;;;10.80;9.70;;;;;;;;;;2616436;54;20410;-79
2023/09/30 18:08:50;;;;;;;12.20;10.77;;;;;;;;;;2613702;54;20406;-78
2023/09/30 18:14:21;;;;;;;9.70;8.80;;;;;;;;;;2614255;54;20488;-78
2023/09/30 18:19:50;;;;;;;10.53;9.43;;;;;;;;;;2614966;39;20784;-79
2023/09/30 18:25:21;;;;;;;11.17;10.17;;;;;;;;;;2612663;39;20879;-79
2023/09/30 18:30:51;;;;;;;11.87;10.67;;;;;;;;;;2610492;54;20392;-78
2023/09/30 18:36:20;;;;;;;12.53;9.70;;;;;;;;;;2613149;31;20998;-78
2023/09/30 18:41:51;;;;;;;13.70;10.67;;;;;;;;;;2612839;54;20378;-78
2023/09/30 18:47:20;;;;;;;16.43;11.50;;;;;;;;;;2612028;54;20411;-78
2023/09/30 18:52:50;;;;;;;13.40;10.33;;;;;;;;;;2615077;54;20387;-79
2023/09/30 19:02:04;;;;;;;19.73;14.53;;;;;;;;;;2610607;39;20875;-79
2023/09/30 19:07:34;;;;;;;14.80;11.30;;;;;;;;;;2610976;46;20390;-80
2023/09/30 19:13:04;;;;;;;12.30;11.10;;;;;;;;;;2614042;54;20355;-79
2023/09/30 19:18:34;;;;;;;12.10;10.80;;;;;;;;;;2609931;54;20379;-79
2023/09/30 19:24:04;;;;;;;12.23;11.00;;;;;;;;;;2611360;54;20383;-79
2023/09/30 19:29:33;;;;;;;14.47;10.97;;;;;;;;;;2612424;54;20411;-79
2023/09/30 19:35:04;;;;;;;12.33;11.10;;;;;;;;;;2611646;54;20370;-79
2023/09/30 19:40:33;;;;;;;12.67;9.73;;;;;;;;;;2612702;54;20395;-79
2023/09/30 19:46:06;;;;;;;13.63;12.20;;;;;;;;;;2610418;54;20375;-79
2023/09/30 19:51:36;;;;;;;14.13;11.80;;;;;;;;;;2610902;54;20394;-79
2023/09/30 19:57:09;;;;;;;16.10;13.20;;;;;;;;;;2610082;54;20424;-78
2023/09/30 20:02:39;;;;;;;13.80;12.40;;;;;;;;;;2610218;54;20466;-79
2023/09/30 20:08:08;;;;;;;17.80;13.03;;;;;;;;;;2610427;54;20410;-79
2023/09/30 20:13:38;;;;;;;16.80;14.73;;;;;;;;;;2612997;54;20394;-80
2023/09/30 20:19:08;;;;;;;14.53;12.87;;;;;;;;;;2610396;54;20400;-80
2023/09/30 20:24:38;;;;;;;14.40;12.20;;;;;;;;;;2610179;54;20861;-79
2023/09/30 20:30:08;;;;;;;16.73;12.93;;;;;;;;;;2609877;54;20402;-78
2023/09/30 20:35:38;;;;;;;15.23;13.30;;;;;;;;;;2608860;54;20407;-77
2023/09/30 20:41:10;;;;;;;17.47;11.47;;;;;;;;;;2612078;54;20532;-79
2023/09/30 20:46:39;;;;;;;14.53;11.83;;;;;;;;;;2613343;54;20379;-80
2023/09/30 20:52:09;;;;;;;12.17;10.90;;;;;;;;;;2613131;54;20359;-79
2023/09/30 20:57:38;;;;;;;15.30;12.07;;;;;;;;;;2612476;54;20399;-79
2023/09/30 21:09:17;;;;;;;12.43;11.13;;;;;;;;;;2612509;54;20425;-79
2023/09/30 21:14:46;;;;;;;14.70;13.20;;;;;;;;;;2616520;31;20883;-78
2023/09/30 21:20:16;;;;;;;15.17;11.67;;;;;;;;;;2614351;54;20422;-79
2023/09/30 21:25:46;;;;;;;13.20;12.00;;;;;;;;;;2615310;54;20386;-79
2023/09/30 21:31:16;;;;;;;13.73;12.33;;;;;;;;;;2615338;54;21021;-77
2023/09/30 21:36:45;;;;;;;15.93;13.67;;;;;;;;;;2614913;39;20780;-77
2023/09/30 21:42:15;;;;;;;15.43;12.97;;;;;;;;;;2615226;39;20762;-77
2023/09/30 21:47:45;;;;;;;18.30;13.53;;;;;;;;;;2614337;54;20403;-78
2023/09/30 21:53:15;;;;;;;13.70;11.87;;;;;;;;;;2613840;54;20391;-77
2023/09/30 21:55:59;;;;;;;20.27;13.03;;;;;;;;;;2611941;54;20431;-78
2023/09/30 21:58:26;;;;;;;19.90;14.10;;;;;;;;;;2609283;47;20427;-77
2023/09/30 22:03:56;;;;;;;13.83;12.53;;;;;;;;;;2612407;39;20760;-78
2023/09/30 22:09:26;;;;;;;14.33;12.93;;;;;;;;;;2613161;54;20407;-79
2023/09/30 22:14:55;;;;;;;17.37;12.57;;;;;;;;;;2611902;54;20399;-79
2023/09/30 22:20:26;;;;;;;14.40;12.90;;;;;;;;;;2611957;46;20402;-78
2023/09/30 22:25:56;;;;;;;13.57;11.77;;;;;;;;;;2613771;54;20434;-78
2023/09/30 22:31:26;;;;;;;15.07;13.00;;;;;;;;;;2612173;54;20390;-78
2023/09/30 22:36:56;;;;;;;16.13;11.87;;;;;;;;;;2613685;54;20415;-78
2023/09/30 22:42:26;;;;;;;12.80;11.40;;;;;;;;;;2613706;54;20418;-79
2023/09/30 22:47:55;;;;;;;12.23;11.10;;;;;;;;;;2614379;54;20391;-78
2023/09/30 22:53:26;;;;;;;11.80;10.33;;;;;;;;;;2615725;54;20535;-78
2023/09/30 22:58:55;;;;;;;12.20;11.00;;;;;;;;;;2615502;54;20386;-78
2023/09/30 23:10:32;;;;;;;13.73;11.00;;;;;;;;;;2614215;54;20406;-76
2023/09/30 23:16:02;;;;;;;11.90;10.70;;;;;;;;;;2613141;54;20418;-77
2023/09/30 23:21:32;;;;;;;19.13;11.73;;;;;;;;;;2611292;54;20379;-76
2023/09/30 23:27:06;;;;;;;14.70;12.67;;;;;;;;;;2612758;54;20375;-77
2023/09/30 23:32:36;;;;;;;13.67;12.47;;;;;;;;;;2611103;54;20418;-76
2023/09/30 23:38:07;;;;;;;13.63;12.23;;;;;;;;;;2611696;54;20430;-78
2023/09/30 23:43:39;;;;;;;12.70;11.40;;;;;;;;;;2611066;54;20936;-77
2023/09/30 23:49:09;;;;;;;15.70;13.70;;;;;;;;;;2612415;54;20391;-78
2023/09/30 23:54:39;;;;;;;14.47;12.83;;;;;;;;;;2611764;54;20383;-79
